Time;durP1;ratioP1;P1;durP2;ratioP2;P2;SDS_P1;SDS_P2;PMS_P1;PMS_P2;Temp;Humidity;BMP_temperature;BMP_pressure;BME280_temperature;BME280_humidity;BME280_pressure;Samples;Min_cycle;Max_cycle;Signal;HPM_P1;HPM_P2
2021/05/06 00:14:28;;;;;;;32.28;5.28;;;20.70;99.90;;;;;;4990972;28;20086;-78
2021/05/06 00:33:28;;;;;;;32.13;8.07;;;20.80;99.90;;;;;;4986313;28;20113;-79
2021/05/06 00:35:56;;;;;;;24.15;4.70;;;20.70;99.90;;;;;;4990045;28;20404;-81
2021/05/06 00:38:29;;;;;;;29.23;5.80;;;20.60;99.90;;;;;;4988638;28;20035;-81
2021/05/06 00:56:56;;;;;;;25.27;5.45;;;22.20;98.50;;;;;;4991496;28;19918;-79
2021/05/06 01:02:45;;;;;;;19.00;4.55;;;22.00;98.40;;;;;;4994439;28;20034;-75
2021/05/06 01:04:45;;;;;;;19.73;4.65;;;21.90;98.80;;;;;;5001721;28;20072;-77
2021/05/06 01:12:39;;;;;;;19.95;4.40;;;22.80;98.10;;;;;;4994521;28;20108;-85
2021/05/06 01:15:07;;;;;;;15.10;3.50;;;22.60;98.50;;;;;;4989299;28;20118;-80
2021/05/06 01:17:34;;;;;;;14.15;4.32;;;23.00;98.40;;;;;;4998527;28;20026;-79
2021/05/06 01:20:02;;;;;;;15.20;4.10;;;22.80;98.20;;;;;;4993305;28;20065;-81
2021/05/06 01:22:30;;;;;;;18.20;3.97;;;22.60;98.80;;;;;;4999013;28;20034;-77
2021/05/06 01:24:59;;;;;;;16.42;3.20;;;22.50;99.10;;;;;;4997051;28;20085;-78
2021/05/06 01:30:09;;;;;;;18.25;4.60;;;22.50;98.60;;;;;;4992589;28;20042;-76
2021/05/06 01:32:57;;;;;;;18.38;4.90;;;22.40;99.20;;;;;;4988636;28;20034;-77
2021/05/06 01:39:19;;;;;;;18.05;4.80;;;23.30;98.50;;;;;;4995430;28;20091;-77
2021/05/06 01:41:26;;;;;;;14.52;4.47;;;23.70;96.90;;;;;;4976006;28;20042;-78
2021/05/06 02:00:13;;;;;;;15.32;3.78;;;22.70;97.80;;;;;;4995253;28;20072;-80
2021/05/06 02:02:41;;;;;;;19.30;4.00;;;22.70;98.00;;;;;;4994482;28;20033;-79
2021/05/06 02:05:09;;;;;;;15.50;3.67;;;23.10;97.30;;;;;;4992840;28;20026;-81
2021/05/06 02:07:39;;;;;;;11.30;3.55;;;23.20;96.90;;;;;;4992148;28;20462;-80
2021/05/06 02:10:09;;;;;;;16.77;2.65;;;23.30;96.90;;;;;;4996442;28;20887;-80
2021/05/06 02:12:38;;;;;;;12.77;3.00;;;23.00;97.00;;;;;;4992370;28;20034;-79
2021/05/06 02:15:10;;;;;;;23.55;3.25;;;23.00;97.20;;;;;;4992761;28;20038;-78
2021/05/06 02:17:39;;;;;;;14.10;3.10;;;23.00;97.40;;;;;;4993674;28;20034;-80
2021/05/06 02:20:08;;;;;;;14.82;2.83;;;23.00;97.40;;;;;;4993169;28;20031;-77
2021/05/06 02:22:38;;;;;;;17.75;3.05;;;23.00;96.90;;;;;;4989234;28;20039;-83
2021/05/06 02:25:07;;;;;;;14.98;2.33;;;22.80;96.60;;;;;;4991720;28;20030;-78
2021/05/06 02:27:35;;;;;;;21.60;4.25;;;22.60;96.80;;;;;;4988552;28;20568;-83
2021/05/06 02:30:03;;;;;;;10.48;2.58;;;22.60;97.10;;;;;;4992280;28;20089;-81
2021/05/06 02:32:31;;;;;;;11.68;2.60;;;22.70;97.00;;;;;;4995176;28;20030;-77
2021/05/06 02:34:59;;;;;;;10.55;2.95;;;22.60;97.10;;;;;;4993725;28;20050;-78
2021/05/06 02:37:27;;;;;;;11.73;3.47;;;22.60;97.50;;;;;;4993844;28;20137;-83
2021/05/06 02:39:55;;;;;;;17.20;2.53;;;22.60;97.20;;;;;;4993482;28;20060;-79
2021/05/06 02:42:23;;;;;;;11.98;3.08;;;22.60;97.30;;;;;;4995702;28;20088;-80
2021/05/06 02:44:51;;;;;;;10.50;2.55;;;22.30;97.90;;;;;;4999581;28;20054;-80
2021/05/06 02:47:19;;;;;;;15.02;2.50;;;22.00;98.80;;;;;;4994060;28;20508;-77
2021/05/06 02:49:47;;;;;;;14.07;2.80;;;21.60;99.90;;;;;;4989191;28;20066;-80
2021/05/06 02:55:13;;;;;;;16.75;3.67;;;21.50;99.90;;;;;;4994470;28;20107;-80
2021/05/06 02:57:55;;;;;;;19.17;3.78;;;21.60;99.90;;;;;;4991253;28;20535;-80
2021/05/06 03:03:08;;;;;;;17.90;3.85;;;21.80;99.90;;;;;;4989913;28;20045;-78
2021/05/06 03:05:38;;;;;;;14.85;3.78;;;21.90;99.90;;;;;;4996437;28;20041;-81
2021/05/06 03:24:31;;;;;;;22.73;4.60;;;23.50;97.80;;;;;;4975563;28;20683;-78
2021/05/06 03:27:01;;;;;;;17.15;3.63;;;23.50;97.70;;;;;;4990002;28;20556;-79
2021/05/06 03:30:00;;;;;;;16.38;3.75;;;23.60;97.60;;;;;;4988185;28;20527;-77
2021/05/06 03:32:34;;;;;;;17.02;3.80;;;23.40;97.60;;;;;;4995873;28;20022;-75
2021/05/06 03:35:15;;;;;;;22.13;3.97;;;23.40;97.70;;;;;;4990085;28;20064;-79
2021/05/06 03:43:36;;;;;;;16.10;3.78;;;22.80;97.40;;;;;;4992932;28;20037;-80
2021/05/06 04:18:22;;;;;;;19.42;2.60;;;21.20;99.80;;;;;;4982896;28;20042;-78
2021/05/06 04:36:56;;;;;;;8.57;1.42;;;21.20;99.20;;;;;;4993131;28;20036;-79
2021/05/06 04:39:38;;;;;;;9.25;2.03;;;21.30;99.10;;;;;;4988785;28;20029;-80
2021/05/06 04:45:22;;;;;;;12.70;3.15;;;21.20;99.80;;;;;;4992761;28;20401;-81
2021/05/06 05:03:59;;;;;;;10.73;2.63;;;21.50;99.00;;;;;;4991665;28;20045;-78
2021/05/06 05:06:31;;;;;;;9.98;2.28;;;21.50;98.80;;;;;;4992190;28;20026;-78
2021/05/06 05:12:02;;;;;;;17.87;2.73;;;21.70;98.30;;;;;;4990405;28;20381;-78
2021/05/06 05:25:05;;;;;;;19.92;4.38;;;21.40;99.10;;;;;;4992908;28;20078;-77
2021/05/06 05:27:33;;;;;;;17.35;3.10;;;21.40;99.30;;;;;;4998041;28;20061;-79
2021/05/06 05:30:00;;;;;;;21.27;6.13;;;21.40;99.60;;;;;;5010510;28;20389;-79
2021/05/06 05:32:28;;;;;;;18.98;4.30;;;21.40;99.60;;;;;;4993072;28;20030;-75
2021/05/06 05:38:06;;;;;;;18.33;4.43;;;21.30;99.60;;;;;;4986943;28;20053;-76
2021/05/06 05:40:49;;;;;;;21.63;5.05;;;21.40;99.70;;;;;;4995215;28;20105;-76
2021/05/06 05:56:43;;;;;;;18.92;4.93;;;21.00;99.80;;;;;;4995124;28;20046;-75
2021/05/06 05:59:10;;;;;;;19.02;4.90;;;20.90;99.60;;;;;;4993907;28;20038;-82
2021/05/06 06:01:38;;;;;;;25.70;5.40;;;20.90;99.60;;;;;;4990011;28;20022;-77
2021/05/06 06:04:05;;;;;;;24.42;5.22;;;21.10;99.50;;;;;;4996915;28;20097;-79
2021/05/06 06:06:33;;;;;;;28.17;6.18;;;21.10;99.50;;;;;;4997014;28;20038;-78
2021/05/06 06:09:03;;;;;;;23.45;5.18;;;21.20;99.40;;;;;;4994028;28;20050;-77
2021/05/06 06:11:35;;;;;;;21.40;5.90;;;21.20;99.20;;;;;;4993654;28;20035;-78
2021/05/06 06:14:08;;;;;;;27.38;6.72;;;21.20;99.40;;;;;;4991599;28;20029;-73
2021/05/06 06:16:39;;;;;;;25.13;5.55;;;21.40;99.20;;;;;;4989633;28;20062;-74
2021/05/06 06:19:06;;;;;;;31.15;6.93;;;21.60;98.50;;;;;;4992981;28;20037;-74
2021/05/06 06:22:01;;;;;;;21.40;5.82;;;21.60;98.30;;;;;;4997261;28;20042;-74
2021/05/06 06:24:22;;;;;;;25.08;5.60;;;21.60;98.80;;;;;;4996901;28;20076;-74
2021/05/06 06:26:49;;;;;;;28.48;6.00;;;21.30;98.70;;;;;;4997909;28;20030;-73
2021/05/06 06:29:19;;;;;;;25.00;5.40;;;21.20;99.20;;;;;;4995275;28;20061;-75
2021/05/06 06:31:48;;;;;;;28.42;5.00;;;21.10;99.30;;;;;;4995921;28;20028;-73
2021/05/06 06:34:16;;;;;;;26.85;6.57;;;21.00;99.50;;;;;;4995163;28;20124;-74
2021/05/06 06:36:45;;;;;;;22.58;5.20;;;21.00;99.50;;;;;;4992382;28;20029;-73
2021/05/06 06:39:16;;;;;;;21.77;4.88;;;21.00;99.50;;;;;;4993104;28;20060;-75
2021/05/06 06:41:47;;;;;;;23.33;5.18;;;20.90;99.60;;;;;;4992268;28;20162;-75
2021/05/06 06:44:15;;;;;;;22.80;4.93;;;20.80;99.80;;;;;;4994223;28;20503;-75
2021/05/06 06:46:43;;;;;;;29.10;6.05;;;20.80;99.60;;;;;;4993389;28;20064;-75
2021/05/06 06:49:11;;;;;;;24.92;6.60;;;20.80;99.60;;;;;;4991146;28;20041;-73
2021/05/06 06:51:38;;;;;;;20.98;4.80;;;20.70;99.70;;;;;;4989227;28;20042;-72
2021/05/06 06:54:06;;;;;;;22.55;4.30;;;20.70;99.60;;;;;;4992688;28;20503;-73
2021/05/06 06:56:33;;;;;;;27.80;5.28;;;20.60;99.70;;;;;;4992386;28;20117;-73
2021/05/06 06:59:01;;;;;;;23.20;4.70;;;20.60;99.90;;;;;;4993874;28;20023;-75
2021/05/06 07:01:29;;;;;;;21.77;5.82;;;20.50;99.90;;;;;;4992504;28;20035;-74
2021/05/06 07:03:56;;;;;;;27.92;6.03;;;20.60;99.90;;;;;;4994650;28;20073;-73
2021/05/06 07:06:23;;;;;;;23.90;5.72;;;20.60;99.90;;;;;;4995392;28;20102;-74
2021/05/06 07:08:51;;;;;;;23.33;4.88;;;20.50;99.90;;;;;;4988366;28;20157;-73
2021/05/06 07:11:18;;;;;;;19.52;4.88;;;20.50;99.90;;;;;;4988195;28;20480;-73
2021/05/06 07:13:46;;;;;;;20.63;3.65;;;20.40;99.90;;;;;;4989532;28;20562;-74
2021/05/06 07:16:13;;;;;;;17.83;4.05;;;20.40;99.90;;;;;;4995015;28;20054;-78
2021/05/06 07:18:41;;;;;;;26.58;5.15;;;20.40;99.90;;;;;;4993879;28;20018;-74
2021/05/06 07:21:08;;;;;;;18.33;2.30;;;20.40;99.90;;;;;;4991633;28;20120;-74
2021/05/06 07:23:36;;;;;;;12.43;1.92;;;20.30;99.90;;;;;;4991606;28;20485;-81
2021/05/06 07:26:04;;;;;;;12.82;1.67;;;20.20;99.90;;;;;;4991680;28;20046;-79
2021/05/06 07:28:40;;;;;;;7.13;1.95;;;20.30;99.90;;;;;;4995251;28;20033;-79
2021/05/06 07:31:10;;;;;;;12.32;3.38;;;20.20;99.90;;;;;;4990400;28;20045;-78
2021/05/06 07:33:39;;;;;;;11.25;3.15;;;20.20;99.90;;;;;;4992118;28;20026;-77
2021/05/06 07:36:08;;;;;;;16.38;2.95;;;20.10;99.90;;;;;;4988517;28;20070;-77
2021/05/06 07:38:35;;;;;;;10.55;2.42;;;20.10;99.90;;;;;;4989941;28;20596;-79
2021/05/06 07:41:03;;;;;;;8.25;2.10;;;20.10;99.90;;;;;;4995235;28;20038;-80
2021/05/06 07:43:31;;;;;;;6.78;1.35;;;20.00;99.90;;;;;;4991697;28;20038;-80
2021/05/06 07:46:01;;;;;;;8.98;1.63;;;20.00;99.90;;;;;;4994370;28;20026;-78
2021/05/06 07:48:28;;;;;;;13.18;2.28;;;20.00;99.90;;;;;;4989152;28;20030;-78
2021/05/06 07:50:55;;;;;;;13.10;2.83;;;19.90;99.90;;;;;;4992607;28;20109;-78
2021/05/06 07:53:26;;;;;;;8.13;1.77;;;19.90;99.90;;;;;;4991289;28;20651;-80
2021/05/06 07:55:55;;;;;;;14.18;2.17;;;19.90;99.90;;;;;;4996353;28;20050;-78
2021/05/06 07:58:22;;;;;;;10.10;1.67;;;20.00;99.90;;;;;;4995884;28;20105;-78
2021/05/06 08:00:52;;;;;;;10.80;2.22;;;19.90;99.90;;;;;;4998853;28;20053;-80
2021/05/06 08:03:20;;;;;;;9.02;1.77;;;19.80;99.90;;;;;;4998486;28;20389;-79
2021/05/06 08:05:49;;;;;;;8.23;1.77;;;19.80;99.90;;;;;;4994443;28;20038;-78
2021/05/06 08:08:16;;;;;;;7.25;1.85;;;19.80;99.90;;;;;;4992721;28;20051;-79
2021/05/06 08:10:44;;;;;;;6.63;1.42;;;19.70;99.90;;;;;;4996479;28;20023;-80
2021/05/06 08:13:11;;;;;;;6.78;2.45;;;19.60;99.90;;;;;;4990451;28;20022;-78
2021/05/06 08:15:39;;;;;;;9.93;2.53;;;19.60;99.90;;;;;;4995141;28;20042;-78
2021/05/06 08:18:06;;;;;;;10.45;2.33;;;19.50;99.90;;;;;;4992289;28;20033;-77
2021/05/06 08:20:34;;;;;;;5.70;2.45;;;19.50;99.90;;;;;;4991653;28;20022;-78
2021/05/06 08:23:01;;;;;;;7.65;1.98;;;19.40;99.90;;;;;;4990414;28;20117;-79
2021/05/06 08:25:28;;;;;;;6.75;1.65;;;19.40;99.90;;;;;;4989734;28;20109;-79
2021/05/06 08:27:56;;;;;;;6.85;1.58;;;19.30;99.90;;;;;;4992330;28;20484;-79
2021/05/06 08:30:23;;;;;;;6.18;1.35;;;19.30;99.90;;;;;;4988491;28;20038;-78
2021/05/06 08:32:50;;;;;;;7.03;1.73;;;19.20;99.90;;;;;;4991349;28;20030;-79
2021/05/06 08:35:18;;;;;;;7.72;2.40;;;19.20;99.90;;;;;;4993514;28;20513;-80
2021/05/06 08:37:45;;;;;;;7.18;1.45;;;19.20;99.90;;;;;;4991388;28;20037;-79
2021/05/06 08:40:13;;;;;;;8.10;1.42;;;19.20;99.90;;;;;;4991252;28;20105;-78
2021/05/06 08:42:41;;;;;;;7.50;1.20;;;19.10;99.90;;;;;;4992921;28;20027;-78
2021/05/06 08:45:09;;;;;;;8.68;1.40;;;19.10;99.90;;;;;;4989736;28;20036;-78
2021/05/06 08:47:38;;;;;;;8.77;1.00;;;19.10;99.90;;;;;;4991891;28;20104;-77
2021/05/06 08:50:06;;;;;;;5.40;1.80;;;19.10;99.90;;;;;;4990781;28;20066;-83
2021/05/06 08:52:36;;;;;;;6.07;2.30;;;19.20;99.90;;;;;;4996597;28;20030;-83
2021/05/06 08:55:03;;;;;;;3.85;1.10;;;19.10;99.90;;;;;;4993560;28;20385;-82
2021/05/06 08:57:32;;;;;;;5.72;1.40;;;19.10;99.90;;;;;;4995668;28;20029;-79
2021/05/06 08:59:59;;;;;;;3.72;0.82;;;19.00;99.90;;;;;;4992414;28;20037;-81
2021/05/06 09:02:26;;;;;;;8.50;1.85;;;19.00;99.90;;;;;;4989170;28;20374;-80
2021/05/06 09:04:54;;;;;;;10.20;1.95;;;19.00;99.90;;;;;;4994781;28;20045;-79
2021/05/06 09:07:22;;;;;;;7.70;2.72;;;19.00;99.90;;;;;;4987029;28;20042;-79
2021/05/06 09:09:51;;;;;;;8.45;2.35;;;19.00;99.90;;;;;;4991537;28;20101;-78
2021/05/06 09:12:36;;;;;;;9.57;1.83;;;19.00;99.90;;;;;;4992854;28;20030;-78
2021/05/06 09:15:17;;;;;;;9.77;2.55;;;19.00;99.90;;;;;;5000064;28;20129;-77
2021/05/06 09:17:45;;;;;;;12.85;2.75;;;18.90;99.90;;;;;;4997661;28;20034;-81
2021/05/06 09:20:19;;;;;;;10.07;3.10;;;18.90;99.90;;;;;;4998274;28;20069;-80
2021/05/06 09:22:51;;;;;;;12.50;2.90;;;18.90;99.90;;;;;;4996984;28;20037;-80
2021/05/06 09:25:36;;;;;;;11.07;3.10;;;18.90;99.90;;;;;;4996756;28;20033;-80
2021/05/06 09:28:16;;;;;;;7.47;2.08;;;19.00;99.90;;;;;;4995007;28;20049;-80
2021/05/06 09:31:03;;;;;;;5.63;1.50;;;19.00;99.90;;;;;;4996223;28;20049;-83
2021/05/06 09:33:42;;;;;;;4.60;1.75;;;19.00;99.90;;;;;;5004640;28;20092;-82
2021/05/06 09:36:19;;;;;;;4.18;1.08;;;19.00;99.90;;;;;;4994364;28;20096;-79
2021/05/06 09:38:55;;;;;;;6.15;1.98;;;19.00;99.90;;;;;;4995853;28;20029;-81
2021/05/06 09:41:25;;;;;;;4.10;1.48;;;19.00;99.90;;;;;;4995029;28;20038;-83
2021/05/06 09:43:53;;;;;;;6.95;2.25;;;19.00;99.90;;;;;;4999486;28;20029;-82
2021/05/06 09:46:37;;;;;;;7.43;1.65;;;19.00;99.90;;;;;;4999397;28;20033;-83
2021/05/06 09:49:13;;;;;;;5.28;1.10;;;19.00;99.90;;;;;;4999193;28;20049;-81
2021/05/06 09:51:41;;;;;;;;;;;19.00;99.90;;;;;;4998435;28;20076;-80
2021/05/06 09:54:11;;;;;;;5.13;0.98;;;19.00;99.90;;;;;;4995434;28;19913;-83
2021/05/06 09:56:41;;;;;;;4.53;1.13;;;19.00;99.90;;;;;;4995884;28;20042;-83
2021/05/06 09:59:09;;;;;;;4.45;1.40;;;18.90;99.90;;;;;;4996550;28;20080;-85
2021/05/06 10:01:43;;;;;;;4.93;2.03;;;18.90;99.90;;;;;;4999177;28;20041;-81
2021/05/06 10:04:17;;;;;;;5.43;1.92;;;18.80;99.90;;;;;;5000480;28;20094;-82
2021/05/06 10:07:02;;;;;;;5.88;2.42;;;18.80;99.90;;;;;;4995943;28;20030;-84
2021/05/06 10:09:32;;;;;;;3.67;1.27;;;18.80;99.90;;;;;;4999609;28;20030;-81
2021/05/06 10:12:01;;;;;;;6.55;1.65;;;18.80;99.90;;;;;;4996820;28;20109;-83
2021/05/06 10:14:29;;;;;;;4.20;2.03;;;18.80;99.90;;;;;;4996867;28;20104;-81
2021/05/06 10:16:57;;;;;;;7.82;2.83;;;18.80;99.90;;;;;;4995132;28;20030;-80
2021/05/06 10:19:26;;;;;;;4.65;2.92;;;18.90;99.90;;;;;;4992921;28;20389;-81
2021/05/06 10:21:53;;;;;;;3.70;1.67;;;18.90;99.90;;;;;;4994297;28;20077;-80
2021/05/06 10:24:21;;;;;;;5.25;1.70;;;18.90;99.90;;;;;;4989546;28;20031;-79
2021/05/06 10:26:50;;;;;;;6.57;1.60;;;18.90;99.90;;;;;;4992363;28;20385;-78
2021/05/06 10:29:18;;;;;;;6.75;1.65;;;18.90;99.90;;;;;;4996111;28;20057;-83
2021/05/06 10:31:46;;;;;;;4.47;1.25;;;18.90;99.90;;;;;;4994124;28;20033;-80
2021/05/06 10:34:14;;;;;;;4.10;0.90;;;18.90;99.90;;;;;;4994181;28;20053;-83
2021/05/06 10:36:42;;;;;;;3.35;1.27;;;18.80;99.90;;;;;;4996886;28;20038;-83
2021/05/06 10:39:13;;;;;;;11.88;1.60;;;18.90;99.90;;;;;;4991346;28;20022;-79
2021/05/06 10:41:41;;;;;;;9.88;1.52;;;18.90;99.90;;;;;;4998228;28;20064;-81
2021/05/06 10:44:14;;;;;;;5.70;1.00;;;18.80;99.90;;;;;;4995698;28;20034;-80
2021/05/06 10:47:05;;;;;;;3.63;1.27;;;18.80;99.90;;;;;;4994185;28;20496;-81
2021/05/06 10:49:42;;;;;;;3.92;1.33;;;18.70;99.90;;;;;;4997872;28;20049;-79
2021/05/06 10:52:11;;;;;;;7.95;1.15;;;18.70;99.90;;;;;;4996539;28;20076;-78
2021/05/06 10:54:53;;;;;;;8.30;1.60;;;18.70;99.90;;;;;;5003298;28;20030;-79
2021/05/06 10:57:22;;;;;;;10.48;2.60;;;18.60;99.90;;;;;;5002223;28;20035;-80
2021/05/06 10:59:50;;;;;;;6.68;1.10;;;18.60;99.90;;;;;;4996866;28;20018;-78
2021/05/06 11:02:40;;;;;;;7.78;1.45;;;18.60;99.90;;;;;;4993514;28;20420;-79
2021/05/06 11:05:15;;;;;;;5.75;1.60;;;18.60;99.90;;;;;;4989620;28;20409;-80
2021/05/06 11:08:05;;;;;;;9.05;2.13;;;18.60;99.90;;;;;;4995194;28;20018;-83
2021/05/06 11:10:52;;;;;;;6.10;1.98;;;18.70;99.90;;;;;;4993969;28;20026;-81
2021/05/06 11:13:28;;;;;;;7.70;1.85;;;18.70;99.90;;;;;;4995239;28;20065;-79
2021/05/06 11:16:15;;;;;;;;;;;18.70;99.90;;;;;;4985729;28;20445;-82
2021/05/06 11:18:52;;;;;;;6.80;1.58;;;18.70;99.90;;;;;;4987369;28;20008;-80
2021/05/06 11:21:33;;;;;;;8.70;1.88;;;18.70;99.90;;;;;;4996117;28;20030;-81
2021/05/06 11:24:20;;;;;;;4.50;1.67;;;18.80;99.90;;;;;;4995020;28;20029;-79
2021/05/06 11:27:10;;;;;;;8.98;1.80;;;18.80;99.90;;;;;;4987572;28;20117;-80
2021/05/06 11:29:41;;;;;;;9.80;2.42;;;18.80;99.90;;;;;;4989868;28;20033;-82
2021/05/06 11:32:23;;;;;;;6.00;1.10;;;18.80;99.90;;;;;;4988191;28;20034;-82
2021/05/06 11:34:52;;;;;;;8.65;1.98;;;18.70;99.90;;;;;;4991587;28;20125;-79
2021/05/06 11:37:27;;;;;;;7.43;2.15;;;18.70;99.90;;;;;;4992891;28;20030;-80
2021/05/06 11:39:59;;;;;;;10.52;1.92;;;18.60;99.90;;;;;;4993212;28;20041;-83
2021/05/06 11:42:28;;;;;;;8.88;1.45;;;18.70;99.90;;;;;;4990581;28;20022;-83
2021/05/06 11:45:25;;;;;;;4.90;1.67;;;18.60;99.90;;;;;;4991270;28;20034;-79
2021/05/06 11:47:53;;;;;;;;;;;18.60;99.90;;;;;;4990832;28;20042;-79
2021/05/06 11:50:35;;;;;;;4.65;0.82;;;18.70;99.90;;;;;;4989167;28;19944;-80
2021/05/06 11:53:03;;;;;;;11.27;2.15;;;18.70;99.90;;;;;;4993367;28;20034;-80
2021/05/06 11:55:38;;;;;;;7.53;1.60;;;18.70;99.90;;;;;;4990086;28;20034;-81
2021/05/06 11:58:07;;;;;;;8.50;1.90;;;18.80;99.90;;;;;;4988706;28;20460;-81
2021/05/06 12:00:36;;;;;;;8.50;1.90;;;18.80;99.90;;;;;;4993381;28;20026;-81
2021/05/06 12:03:08;;;;;;;5.88;2.13;;;18.70;99.90;;;;;;4992513;28;20027;-84
2021/05/06 12:05:56;;;;;;;8.40;1.20;;;18.70;99.90;;;;;;4993287;28;20038;-82
2021/05/06 12:08:33;;;;;;;7.47;1.58;;;18.70;99.90;;;;;;4989619;28;20503;-79
2021/05/06 12:11:04;;;;;;;8.20;2.63;;;18.70;99.90;;;;;;4992955;28;20029;-81
2021/05/06 12:13:34;;;;;;;7.65;1.33;;;18.60;99.90;;;;;;4991137;28;20113;-80
2021/05/06 12:16:24;;;;;;;10.02;1.58;;;18.60;99.90;;;;;;4991115;28;20061;-79
2021/05/06 12:19:21;;;;;;;9.40;1.35;;;18.70;99.90;;;;;;4996070;28;20021;-80
2021/05/06 12:21:52;;;;;;;5.10;1.60;;;18.70;99.90;;;;;;4994013;28;20038;-80
2021/05/06 12:24:41;;;;;;;7.22;1.45;;;18.70;99.90;;;;;;4995367;28;20026;-82
2021/05/06 12:27:36;;;;;;;8.90;1.65;;;18.70;99.90;;;;;;4992021;28;20481;-82
2021/05/06 12:30:04;;;;;;;3.30;2.17;;;18.80;99.90;;;;;;4991035;28;20062;-80
2021/05/06 12:32:35;;;;;;;11.90;1.85;;;18.80;99.90;;;;;;4992352;28;20878;-81
2021/05/06 12:35:03;;;;;;;8.43;1.60;;;18.80;99.90;;;;;;4990169;28;20062;-79
2021/05/06 12:37:32;;;;;;;12.57;2.97;;;18.80;99.90;;;;;;4992248;28;20034;-79
2021/05/06 12:40:00;;;;;;;4.35;1.63;;;18.80;99.90;;;;;;4994461;28;20022;-80
2021/05/06 12:42:33;;;;;;;5.10;1.30;;;18.80;99.90;;;;;;4990064;28;20489;-79
2021/05/06 12:45:01;;;;;;;12.30;2.13;;;18.80;99.90;;;;;;4987781;28;20069;-79
2021/05/06 12:47:32;;;;;;;9.25;1.77;;;18.80;99.90;;;;;;4994646;28;20035;-82
2021/05/06 12:50:13;;;;;;;6.82;1.67;;;18.80;99.90;;;;;;4991936;28;20101;-82
2021/05/06 12:52:43;;;;;;;8.48;1.00;;;18.80;99.90;;;;;;4986359;28;20027;-78
2021/05/06 12:55:28;;;;;;;7.20;1.00;;;18.80;99.90;;;;;;4991357;28;20069;-78
2021/05/06 12:58:12;;;;;;;8.53;1.27;;;18.80;99.90;;;;;;4990383;28;20425;-77
2021/05/06 13:00:41;;;;;;;6.72;1.40;;;18.80;99.90;;;;;;4990033;28;20034;-78
2021/05/06 13:03:12;;;;;;;10.15;2.25;;;18.80;99.90;;;;;;4990636;28;20033;-80
2021/05/06 13:05:43;;;;;;;4.63;1.33;;;18.80;99.90;;;;;;4988958;28;20026;-81
2021/05/06 13:08:11;;;;;;;5.00;1.80;;;18.80;99.90;;;;;;4988139;28;20026;-78
2021/05/06 13:10:42;;;;;;;6.60;1.33;;;18.80;99.90;;;;;;4988219;28;20097;-78
2021/05/06 13:13:12;;;;;;;10.80;1.52;;;18.80;99.90;;;;;;4981357;28;20477;-79
2021/05/06 13:16:06;;;;;;;3.78;1.23;;;18.70;99.90;;;;;;4989283;28;20042;-80
2021/05/06 13:18:33;;;;;;;10.27;2.05;;;18.70;99.90;;;;;;4988962;28;20034;-78
2021/05/06 13:21:01;;;;;;;12.70;1.52;;;18.60;99.90;;;;;;4991145;28;20374;-77
2021/05/06 13:23:34;;;;;;;7.05;2.00;;;18.60;99.90;;;;;;4988670;28;20035;-80
2021/05/06 13:26:04;;;;;;;4.07;0.75;;;18.60;99.90;;;;;;4989804;28;20030;-78
2021/05/06 13:28:34;;;;;;;5.93;0.98;;;18.50;99.90;;;;;;4991486;28;20113;-79
2021/05/06 13:31:22;;;;;;;6.00;0.95;;;18.60;99.90;;;;;;4989485;28;20031;-77
2021/05/06 13:34:13;;;;;;;5.18;0.85;;;18.60;99.90;;;;;;4989335;28;20029;-80
2021/05/06 13:36:43;;;;;;;5.15;1.10;;;18.50;99.90;;;;;;4988779;28;20049;-80
2021/05/06 13:39:13;;;;;;;10.65;2.15;;;18.60;99.90;;;;;;4991339;28;20102;-79
2021/05/06 13:41:46;;;;;;;4.93;1.13;;;18.60;99.90;;;;;;4995556;28;20026;-79
2021/05/06 13:44:20;;;;;;;7.13;1.33;;;18.50;99.90;;;;;;4995206;28;20042;-81
2021/05/06 13:46:56;;;;;;;4.70;1.25;;;18.50;99.90;;;;;;4990326;28;20105;-78
2021/05/06 13:49:27;;;;;;;6.15;1.08;;;18.50;99.90;;;;;;4991121;28;20046;-82
2021/05/06 13:51:56;;;;;;;5.43;1.25;;;18.50;99.90;;;;;;5002130;28;20018;-80
2021/05/06 13:54:27;;;;;;;4.43;1.15;;;18.50;99.90;;;;;;5003264;28;20027;-80
2021/05/06 13:56:58;;;;;;;5.55;1.10;;;18.50;99.90;;;;;;4994299;28;20485;-81
2021/05/06 13:59:26;;;;;;;5.35;1.35;;;18.40;99.90;;;;;;4997358;28;20034;-81
2021/05/06 14:01:55;;;;;;;10.05;1.58;;;18.40;99.90;;;;;;5002376;28;20034;-81
2021/05/06 14:04:23;;;;;;;10.18;1.50;;;18.40;99.90;;;;;;5000957;28;20022;-80
2021/05/06 14:06:51;;;;;;;6.63;1.45;;;18.40;99.90;;;;;;4997100;28;20041;-82
2021/05/06 14:09:19;;;;;;;11.90;2.58;;;18.40;99.90;;;;;;4994820;28;20025;-79
2021/05/06 14:11:50;;;;;;;14.65;1.50;;;18.40;99.90;;;;;;4996239;28;20034;-79
2021/05/06 14:14:18;;;;;;;7.25;1.83;;;18.40;99.90;;;;;;5000029;28;20037;-79
2021/05/06 14:16:45;;;;;;;5.38;1.27;;;18.40;99.90;;;;;;4995738;28;20088;-80
2021/05/06 14:19:13;;;;;;;5.38;1.20;;;18.40;99.90;;;;;;4991550;28;20052;-78
2021/05/06 14:21:43;;;;;;;9.63;1.27;;;18.50;99.90;;;;;;4993812;28;20034;-78
2021/05/06 14:24:12;;;;;;;9.10;1.75;;;18.50;99.90;;;;;;4994447;28;20023;-80
2021/05/06 14:26:39;;;;;;;10.88;2.03;;;18.60;99.90;;;;;;4993293;28;20113;-80
2021/05/06 14:29:09;;;;;;;9.27;2.00;;;18.60;99.90;;;;;;4993491;28;20508;-79
2021/05/06 14:31:36;;;;;;;5.03;0.95;;;18.60;99.90;;;;;;4991568;28;20497;-78
2021/05/06 14:34:04;;;;;;;6.00;1.48;;;18.60;99.90;;;;;;4992894;28;20042;-79
2021/05/06 14:36:31;;;;;;;5.28;0.90;;;18.60;99.90;;;;;;4991432;28;20045;-79
2021/05/06 14:39:02;;;;;;;6.47;1.15;;;18.60;99.90;;;;;;4993267;28;20030;-75
2021/05/06 14:41:30;;;;;;;10.00;1.38;;;18.60;99.90;;;;;;4992710;28;20092;-79
2021/05/06 14:43:57;;;;;;;4.32;1.45;;;18.60;99.90;;;;;;4991284;28;20069;-79
2021/05/06 14:46:25;;;;;;;4.95;1.27;;;18.60;99.90;;;;;;4991906;28;20041;-77
2021/05/06 14:48:54;;;;;;;5.40;0.90;;;18.60;99.90;;;;;;4989684;28;20497;-80
2021/05/06 14:51:21;;;;;;;7.10;1.10;;;18.60;99.90;;;;;;4991152;28;20034;-77
2021/05/06 14:53:48;;;;;;;8.43;1.70;;;18.60;99.90;;;;;;4993403;28;20022;-79
2021/05/06 14:56:16;;;;;;;4.28;1.02;;;18.60;99.90;;;;;;4992198;28;20113;-78
2021/05/06 14:58:43;;;;;;;5.20;1.50;;;18.60;99.90;;;;;;4992761;28;20018;-78
2021/05/06 15:01:10;;;;;;;5.07;1.05;;;18.60;99.90;;;;;;4992737;28;20076;-79
2021/05/06 15:03:38;;;;;;;2.65;1.42;;;18.60;99.90;;;;;;4993000;28;20030;-77
2021/05/06 15:06:06;;;;;;;7.47;0.90;;;18.60;99.90;;;;;;4991673;28;20031;-79
2021/05/06 15:08:33;;;;;;;5.28;0.82;;;18.60;99.90;;;;;;4991054;28;20033;-77
2021/05/06 15:11:01;;;;;;;6.53;1.70;;;18.60;99.90;;;;;;4994624;28;20084;-78
2021/05/06 15:13:32;;;;;;;1.63;0.98;;;18.60;99.90;;;;;;4989865;28;20060;-84
2021/05/06 15:15:59;;;;;;;2.45;0.95;;;18.60;99.90;;;;;;4989057;28;20046;-76
2021/05/06 15:18:26;;;;;;;5.40;0.90;;;18.60;99.90;;;;;;4990453;28;20031;-76
2021/05/06 15:20:54;;;;;;;5.63;0.90;;;18.60;99.90;;;;;;4993060;28;20413;-76
2021/05/06 15:23:22;;;;;;;2.88;1.05;;;18.60;99.90;;;;;;4989444;28;20046;-76
2021/05/06 15:25:49;;;;;;;4.32;0.88;;;18.60;99.90;;;;;;4992620;28;20030;-77
2021/05/06 15:28:17;;;;;;;3.13;0.77;;;18.60;99.90;;;;;;4992788;28;20033;-77
2021/05/06 15:30:45;;;;;;;1.85;0.75;;;18.50;99.90;;;;;;4992165;28;20030;-77
2021/05/06 15:33:13;;;;;;;3.40;1.95;;;18.50;99.90;;;;;;4990770;28;20766;-79
2021/05/06 15:35:40;;;;;;;5.85;1.02;;;18.50;99.90;;;;;;4991292;28;20053;-77
2021/05/06 15:38:08;;;;;;;4.63;0.70;;;18.50;99.90;;;;;;4988420;28;20513;-78
2021/05/06 15:40:39;;;;;;;6.05;1.45;;;18.50;99.90;;;;;;4993016;28;20033;-77
2021/05/06 15:43:11;;;;;;;4.50;1.42;;;18.50;99.90;;;;;;4991033;28;20061;-77
2021/05/06 15:45:42;;;;;;;3.70;0.70;;;18.40;99.90;;;;;;4992458;28;20022;-76
2021/05/06 15:48:14;;;;;;;7.90;1.67;;;18.50;99.90;;;;;;4992074;28;20056;-78
2021/05/06 15:50:42;;;;;;;5.65;2.25;;;18.40;99.90;;;;;;4992562;28;20030;-76
2021/05/06 15:53:10;;;;;;;6.53;1.40;;;18.40;99.90;;;;;;4990200;28;20397;-78
2021/05/06 15:55:38;;;;;;;6.00;1.63;;;18.40;99.90;;;;;;4991717;28;20489;-76
2021/05/06 15:58:07;;;;;;;5.07;2.17;;;18.40;99.90;;;;;;4992402;28;20096;-76
2021/05/06 16:00:35;;;;;;;7.25;2.00;;;18.40;99.90;;;;;;4989861;28;20030;-78
2021/05/06 16:03:08;;;;;;;12.50;2.50;;;18.40;99.90;;;;;;4991584;28;20504;-78
2021/05/06 16:05:38;;;;;;;7.22;2.05;;;18.40;99.90;;;;;;4988881;28;20030;-77
2021/05/06 16:08:06;;;;;;;4.57;1.98;;;18.40;99.90;;;;;;4990100;28;20081;-77
2021/05/06 16:10:33;;;;;;;6.80;2.13;;;18.40;99.90;;;;;;4994439;28;20041;-77
2021/05/06 16:13:01;;;;;;;11.00;3.75;;;18.40;99.90;;;;;;4992032;28;20492;-78
2021/05/06 16:15:29;;;;;;;5.38;2.63;;;18.40;99.90;;;;;;4991826;28;20393;-77
2021/05/06 16:17:57;;;;;;;8.35;2.83;;;18.40;99.90;;;;;;4992527;28;20113;-77
2021/05/06 16:20:32;;;;;;;12.10;2.80;;;18.40;99.90;;;;;;4990352;28;20030;-77
2021/05/06 16:22:59;;;;;;;5.60;2.78;;;18.40;99.90;;;;;;4990789;28;20057;-77
2021/05/06 16:25:27;;;;;;;8.27;3.95;;;18.40;99.90;;;;;;4992070;28;20125;-77